Time;durP1;ratioP1;P1;durP2;ratioP2;P2;SDS_P1;SDS_P2;PMS_P1;PMS_P2;Temp;Humidity;BMP_temperature;BMP_pressure;BME280_temperature;BME280_humidity;BME280_pressure;Samples;Min_cycle;Max_cycle;Signal;HPM_P1;HPM_P2
2023/10/08 00:05:58;;;;;;;1.30;0.47;;;;;;;12.56;100.00;102269.81;10394554;28;20101;-77
2023/10/08 00:11:05;;;;;;;1.17;0.40;;;;;;;12.55;100.00;102240.50;10409625;28;20041;-76
2023/10/08 00:16:09;;;;;;;0.85;0.28;;;;;;;12.59;100.00;102238.97;10396252;28;20038;-76
2023/10/08 00:26:12;;;;;;;0.32;0.30;;;;;;;12.41;100.00;102217.75;10405451;28;20033;-77
2023/10/08 00:31:13;;;;;;;6.75;0.52;;;;;;;12.55;100.00;102239.66;10405080;28;20065;-75
2023/10/08 00:36:18;;;;;;;3.00;0.45;;;;;;;12.55;100.00;102262.63;10407020;28;20045;-76
2023/10/08 00:41:21;;;;;;;2.55;0.60;;;;;;;12.62;100.00;102252.28;10407096;28;20046;-77
2023/10/08 00:46:24;;;;;;;1.55;0.40;;;;;;;12.63;100.00;102265.06;10381844;28;20125;-76
2023/10/08 00:51:40;;;;;;;1.70;0.50;;;;;;;12.64;100.00;102252.06;10382846;28;20052;-77
2023/10/08 00:56:50;;;;;;;1.27;0.50;;;;;;;12.67;100.00;102271.78;10380463;28;20490;-76
2023/10/08 01:01:51;;;;;;;4.68;0.68;;;;;;;12.70;100.00;102265.78;10368938;28;20042;-77
2023/10/08 01:06:59;;;;;;;0.82;0.40;;;;;;;12.69;100.00;102242.00;10389364;28;20042;-77
2023/10/08 01:17:32;;;;;;;6.05;0.70;;;;;;;12.60;100.00;102259.13;10357274;28;20056;-76
2023/10/08 01:22:33;;;;;;;1.25;0.30;;;;;;;12.60;100.00;102279.31;10375579;28;20041;-76
2023/10/08 01:27:34;;;;;;;4.03;0.45;;;;;;;12.58;100.00;102291.69;10381386;28;20038;-75
2023/10/08 01:32:36;;;;;;;1.50;0.45;;;;;;;12.57;100.00;102288.09;10400946;28;20029;-76
2023/10/08 01:37:36;;;;;;;2.75;0.40;;;;;;;12.60;100.00;102271.03;10397182;28;20042;-76
2023/10/08 01:42:39;;;;;;;3.92;0.70;;;;;;;12.63;100.00;102276.09;10399338;28;20061;-76
2023/10/08 01:47:39;;;;;;;1.58;0.75;;;;;;;12.67;100.00;102270.94;10393873;28;20038;-76
2023/10/08 01:52:40;;;;;;;3.65;0.50;;;;;;;12.67;100.00;102255.22;10396432;28;20033;-76
2023/10/08 01:57:43;;;;;;;1.33;0.35;;;;;;;12.62;100.00;102296.50;10399261;28;20045;-75
2023/10/08 02:02:43;;;;;;;1.02;0.43;;;;;;;12.59;100.00;102296.97;10396569;28;20407;-76
2023/10/08 02:07:44;;;;;;;2.25;0.60;;;;;;;12.56;100.00;102319.53;10385910;28;20046;-76
2023/10/08 02:12:45;;;;;;;3.78;0.77;;;;;;;12.56;100.00;102321.47;10399196;28;20052;-76
2023/10/08 02:17:46;;;;;;;2.33;0.45;;;;;;;12.56;100.00;102319.53;10393470;28;20076;-76
2023/10/08 02:22:46;;;;;;;10.30;1.85;;;;;;;12.57;100.00;102315.72;10401198;28;20072;-76
2023/10/08 02:27:48;;;;;;;5.68;0.75;;;;;;;12.56;100.00;102319.53;10394505;28;20045;-76
2023/10/08 02:32:49;;;;;;;4.68;0.75;;;;;;;12.60;100.00;102326.28;10400853;28;20069;-77
2023/10/08 02:37:50;;;;;;;2.10;0.80;;;;;;;12.58;100.00;102322.91;10362955;28;20061;-77
2023/10/08 02:42:50;;;;;;;2.38;1.10;;;;;;;12.59;100.00;102334.78;10392965;28;20514;-76
2023/10/08 02:47:52;;;;;;;2.17;0.57;;;;;;;11.90;100.00;102247.47;10398047;28;20049;-74
2023/10/08 02:52:53;;;;;;;2.00;0.50;;;;;;;12.60;100.00;102348.38;10394924;28;20449;-76
2023/10/08 02:57:56;;;;;;;1.58;0.60;;;;;;;12.62;100.00;102346.25;10397905;28;20076;-76
2023/10/08 03:02:57;;;;;;;7.63;0.77;;;;;;;12.61;100.00;102358.38;10395791;28;20426;-77
2023/10/08 03:07:58;;;;;;;7.20;1.20;;;;;;;12.59;100.00;102349.47;10381691;28;20037;-77
2023/10/08 03:13:05;;;;;;;2.78;0.82;;;;;;;12.58;100.00;102361.59;10383163;28;20045;-76
2023/10/08 03:18:14;;;;;;;2.20;0.95;;;;;;;12.52;100.00;102362.50;10393376;28;20401;-76
2023/10/08 03:23:33;;;;;;;5.70;1.00;;;;;;;12.48;100.00;102367.66;10396289;28;20042;-76
2023/10/08 03:28:34;;;;;;;3.42;0.93;;;;;;;12.46;100.00;102353.25;10397819;28;20375;-76
2023/10/08 03:33:37;;;;;;;3.88;0.70;;;;;;;12.45;100.00;102368.13;10395655;28;20029;-76
2023/10/08 03:38:57;;;;;;;4.07;1.23;;;;;;;12.45;100.00;102362.59;10388157;28;20038;-76
2023/10/08 03:44:12;;;;;;;5.97;0.70;;;;;;;12.48;100.00;102372.34;10382688;28;20076;-76
2023/10/08 03:54:35;;;;;;;3.55;0.80;;;;;;;12.49;100.00;102385.09;10396440;28;20037;-76
2023/10/08 03:59:40;;;;;;;2.38;0.63;;;;;;;12.47;100.00;102404.66;10393300;28;20069;-76
2023/10/08 04:04:57;;;;;;;2.45;0.68;;;;;;;12.45;100.00;102423.38;10397709;28;20034;-76
2023/10/08 04:15:07;;;;;;;4.05;1.10;;;;;;;12.41;100.00;102427.66;10394637;28;19925;-75
2023/10/08 04:20:30;;;;;;;2.88;0.77;;;;;;;12.43;100.00;102444.00;10394377;28;20042;-76
2023/10/08 04:25:29;;;;;;;7.20;0.80;;;;;;;12.43;100.00;102453.13;10395034;28;20113;-75
2023/10/08 04:30:33;;;;;;;5.25;1.00;;;;;;;12.40;100.00;102477.59;10403421;28;20049;-76
2023/10/08 04:35:44;;;;;;;4.53;2.17;;;;;;;12.41;100.00;102491.19;10398012;28;20042;-75
2023/10/08 04:40:51;;;;;;;3.72;0.80;;;;;;;12.44;100.00;102467.78;10401210;28;20084;-75
2023/10/08 04:45:52;;;;;;;5.70;0.90;;;;;;;12.46;100.00;102451.81;10396117;28;20061;-76
2023/10/08 04:50:59;;;;;;;5.55;1.33;;;;;;;12.45;100.00;102478.63;10400820;28;20116;-75
2023/10/08 04:56:05;;;;;;;5.47;0.70;;;;;;;12.46;100.00;102473.94;10396512;28;20056;-75
2023/10/08 05:01:18;;;;;;;4.35;1.20;;;;;;;12.44;100.00;102488.00;10393631;28;20053;-75
2023/10/08 05:06:39;;;;;;;6.18;0.70;;;;;;;12.44;100.00;102503.69;10401383;28;20037;-74
2023/10/08 05:17:09;;;;;;;8.15;1.00;;;;;;;12.46;100.00;102462.88;10382934;28;20042;-75
2023/10/08 05:27:56;;;;;;;1.95;0.70;;;;;;;12.38;100.00;102450.22;10395406;28;20061;-75
2023/10/08 05:38:23;;;;;;;5.18;1.55;;;;;;;12.24;100.00;102437.63;10395549;28;20394;-76
2023/10/08 05:48:45;;;;;;;6.70;1.15;;;;;;;12.22;100.00;102462.69;10397993;28;20131;-75
2023/10/08 05:53:49;;;;;;;3.90;0.90;;;;;;;12.20;100.00;102462.06;10382376;28;20039;-75
2023/10/08 05:59:00;;;;;;;6.53;2.20;;;;;;;11.99;100.00;102441.25;10398937;28;20038;-75
2023/10/08 06:04:07;;;;;;;5.60;0.88;;;;;;;12.21;100.00;102504.31;10394552;28;20110;-76
2023/10/08 06:19:31;;;;;;;5.30;1.20;;;;;;;12.36;100.00;102492.94;10388623;28;20494;-75
2023/10/08 06:24:32;;;;;;;4.68;1.20;;;;;;;12.38;100.00;102513.75;10400562;28;20034;-76
2023/10/08 06:29:33;;;;;;;3.00;1.45;;;;;;;12.43;100.00;102515.81;10392586;28;20048;-76
2023/10/08 06:34:33;;;;;;;9.45;1.40;;;;;;;12.46;100.00;102507.06;10400625;28;20413;-76
2023/10/08 06:39:47;;;;;;;5.28;1.77;;;;;;;12.49;100.00;102514.91;10390626;28;20132;-75
2023/10/08 06:44:48;;;;;;;5.78;1.13;;;;;;;12.61;100.00;102537.09;10363085;28;20041;-76
2023/10/08 06:49:49;;;;;;;7.05;0.93;;;;;;;12.76;100.00;102525.72;10397922;28;20124;-75
2023/10/08 06:54:53;;;;;;;3.03;0.90;;;;;;;12.99;100.00;102523.09;10392739;28;20041;-76
2023/10/08 06:59:53;;;;;;;7.85;0.98;;;;;;;13.09;100.00;102534.47;10398762;28;20072;-75
2023/10/08 07:04:53;;;;;;;5.05;1.00;;;;;;;13.11;100.00;102537.84;10393099;28;20038;-75
2023/10/08 07:09:56;;;;;;;5.03;0.88;;;;;;;13.14;100.00;102547.59;10393471;28;20037;-75
2023/10/08 07:14:58;;;;;;;3.78;0.73;;;;;;;13.24;100.00;102538.75;10394829;28;20448;-76
2023/10/08 07:19:59;;;;;;;5.63;0.80;;;;;;;13.31;100.00;102536.78;10395894;28;20057;-74
2023/10/08 07:24:59;;;;;;;5.43;1.00;;;;;;;13.49;100.00;102547.81;10394495;28;20034;-76
2023/10/08 07:30:02;;;;;;;9.45;2.28;;;;;;;13.51;100.00;102553.97;10394804;28;20049;-75
2023/10/08 07:40:37;;;;;;;5.85;1.10;;;;;;;13.73;100.00;102586.69;10381354;28;20042;-74
2023/10/08 07:45:37;;;;;;;3.10;0.60;;;;;;;13.74;100.00;102607.75;10396736;28;20099;-75
2023/10/08 07:50:43;;;;;;;3.30;0.70;;;;;;;13.73;100.00;102606.06;10395906;28;20103;-74
2023/10/08 07:55:47;;;;;;;4.28;0.70;;;;;;;13.72;100.00;102596.94;10392335;28;20080;-73
2023/10/08 08:00:54;;;;;;;4.35;1.10;;;;;;;13.79;100.00;102627.28;10393317;28;20077;-74
2023/10/08 08:05:54;;;;;;;5.97;0.77;;;;;;;13.81;100.00;102605.75;10404844;28;20478;-73
2023/10/08 08:10:57;;;;;;;4.97;0.82;;;;;;;13.90;100.00;102573.88;10400824;28;20030;-74
2023/10/08 08:15:58;;;;;;;6.35;1.10;;;;;;;13.97;100.00;102584.00;10401891;28;20053;-74
2023/10/08 08:21:01;;;;;;;5.05;0.98;;;;;;;14.11;100.00;102561.41;10399876;28;20034;-75
2023/10/08 08:31:13;;;;;;;6.60;1.08;;;;;;;14.57;100.00;102519.34;10394746;28;20042;-75
2023/10/08 08:36:13;;;;;;;5.57;0.98;;;;;;;14.67;100.00;102556.47;10392406;28;20061;-75
2023/10/08 08:41:17;;;;;;;9.45;0.88;;;;;;;14.71;100.00;102618.66;10390908;28;20046;-74
2023/10/08 08:46:18;;;;;;;3.03;0.60;;;;;;;14.73;100.00;102616.50;10375708;28;20037;-75
2023/10/08 08:51:20;;;;;;;9.95;1.02;;;;;;;14.78;100.00;102662.06;10384782;28;20033;-74
2023/10/08 08:56:20;;;;;;;13.02;1.30;;;;;;;14.79;100.00;102666.53;10386167;28;20075;-74
2023/10/08 09:01:21;;;;;;;11.75;1.75;;;;;;;14.99;100.00;102669.81;10382879;28;20084;-75
2023/10/08 09:06:21;;;;;;;4.88;0.90;;;;;;;15.07;100.00;102654.75;10379793;28;20037;-74
2023/10/08 09:11:21;;;;;;;8.40;0.98;;;;;;;15.30;100.00;102665.00;10382277;28;20053;-74
2023/10/08 09:16:23;;;;;;;5.95;1.08;;;;;;;15.58;100.00;102661.44;10386529;28;20034;-74
2023/10/08 09:21:23;;;;;;;4.10;1.40;;;;;;;15.53;100.00;102620.53;10379942;28;20101;-75
2023/10/08 09:26:24;;;;;;;7.00;0.93;;;;;;;15.89;100.00;102649.06;10385924;28;20108;-75
2023/10/08 09:31:25;;;;;;;4.38;1.05;;;;;;;15.97;100.00;102619.22;10369806;28;20037;-74
2023/10/08 09:36:31;;;;;;;7.38;0.80;;;;;;;16.17;100.00;102608.50;10404780;28;20037;-74
2023/10/08 09:41:32;;;;;;;3.78;1.30;;;;;;;16.41;100.00;102606.38;10363163;28;20490;-74
2023/10/08 09:46:38;;;;;;;4.55;1.10;;;;;;;16.45;100.00;102615.91;10376053;28;20080;-75
2023/10/08 09:51:40;;;;;;;9.15;1.75;;;;;;;16.32;100.00;102583.72;10386693;28;20037;-74
2023/10/08 09:56:40;;;;;;;5.70;1.33;;;;;;;16.59;100.00;102605.31;10387405;28;20037;-74
2023/10/08 10:01:41;;;;;;;6.75;1.13;;;;;;;16.57;100.00;102599.16;10379492;28;20046;-74
2023/10/08 10:06:43;;;;;;;4.85;0.90;;;;;;;16.52;100.00;102610.22;10368627;28;20046;-75
2023/10/08 10:11:50;;;;;;;6.55;0.90;;;;;;;16.34;100.00;102614.06;10381554;28;20096;-74
2023/10/08 10:17:11;;;;;;;4.00;0.80;;;;;;;16.20;100.00;102605.19;10395659;28;20038;-74
2023/10/08 10:22:15;;;;;;;2.78;0.60;;;;;;;16.24;100.00;102634.16;10394156;28;20049;-73
2023/10/08 10:27:16;;;;;;;5.57;0.75;;;;;;;16.14;100.00;102636.75;10388842;28;20072;-71
2023/10/08 10:32:16;;;;;;;6.63;1.05;;;;;;;16.26;100.00;102645.88;10398525;28;20456;-73
2023/10/08 10:37:20;;;;;;;5.43;1.30;;;;;;;16.42;100.00;102649.78;10398113;28;20064;-75
2023/10/08 10:42:20;;;;;;;9.52;0.90;;;;;;;16.55;100.00;102648.63;10376807;28;20029;-74
2023/10/08 10:52:31;;;;;;;2.75;0.55;;;;;;;17.00;100.00;102616.28;10398233;28;20038;-74
2023/10/08 10:57:34;;;;;;;5.90;0.65;;;;;;;17.31;100.00;102620.34;10398033;28;20042;-74
2023/10/08 11:02:39;;;;;;;10.07;1.10;;;;;;;17.69;100.00;102607.47;10371125;28;20042;-74
2023/10/08 11:07:40;;;;;;;5.18;0.95;;;;;;;17.70;100.00;102573.78;10399039;28;20041;-75
2023/10/08 11:12:47;;;;;;;7.82;0.70;;;;;;;17.64;100.00;102552.53;10384583;28;20067;-73
2023/10/08 11:17:47;;;;;;;5.13;0.77;;;;;;;17.33;100.00;102515.16;10377109;28;20417;-73
2023/10/08 11:22:47;;;;;;;3.17;0.90;;;;;;;17.17;100.00;102491.00;10394651;28;20061;-73
2023/10/08 11:27:48;;;;;;;3.08;0.80;;;;;;;17.19;100.00;102505.50;10380590;28;20041;-74
2023/10/08 11:32:49;;;;;;;7.20;0.70;;;;;;;17.15;100.00;102531.06;10376477;28;20042;-73
2023/10/08 11:37:50;;;;;;;5.10;1.17;;;;;;;17.25;100.00;102524.78;10381518;28;20034;-73
2023/10/08 11:42:51;;;;;;;7.00;1.10;;;;;;;17.29;100.00;102531.53;10374644;28;20541;-72
2023/10/08 11:48:03;;;;;;;3.33;0.63;;;;;;;17.48;100.00;102545.09;10389137;28;20034;-73
2023/10/08 11:53:05;;;;;;;7.72;0.80;;;;;;;17.58;100.00;102533.25;10373092;28;20063;-73
2023/10/08 11:58:12;;;;;;;11.05;1.10;;;;;;;17.70;100.00;102539.53;10388465;28;20125;-73
2023/10/08 12:03:16;;;;;;;5.88;1.63;;;;;;;17.88;100.00;102521.59;10374437;28;20056;-73
2023/10/08 12:08:18;;;;;;;5.47;0.93;;;;;;;17.99;100.00;102528.13;10391546;28;20040;-74
2023/10/08 12:13:23;;;;;;;3.47;0.98;;;;;;;17.95;100.00;102509.16;10392377;28;20081;-73
2023/10/08 12:18:26;;;;;;;4.80;1.23;;;;;;;18.14;100.00;102514.34;10385769;28;20060;-73
2023/10/08 12:23:29;;;;;;;9.55;1.05;;;;;;;18.12;100.00;102495.06;10396567;28;20042;-73
2023/10/08 12:28:29;;;;;;;7.30;1.00;;;;;;;18.21;100.00;102458.34;10370879;28;20089;-73
2023/10/08 12:33:31;;;;;;;3.78;0.85;;;;;;;19.32;100.00;102510.31;10396182;28;20034;-73
2023/10/08 12:38:31;;;;;;;4.53;0.90;;;;;;;19.40;100.00;102508.13;10388192;28;20128;-73
2023/10/08 12:43:35;;;;;;;6.13;0.88;;;;;;;19.14;100.00;102542.38;10376411;28;20038;-72
2023/10/08 12:48:36;;;;;;;4.75;0.88;;;;;;;19.34;100.00;102522.06;10398133;28;20034;-70
2023/10/08 12:53:37;;;;;;;6.28;1.23;;;;;;;20.27;100.00;102508.28;10398417;28;20411;-76
2023/10/08 12:58:49;;;;;;;3.60;0.82;;;;;;;21.74;100.00;102505.28;10400903;28;20041;-74
2023/10/08 13:03:53;;;;;;;6.85;1.08;;;;;;;22.77;94.38;102489.22;10396953;28;20115;-74
2023/10/08 13:08:54;;;;;;;6.40;0.82;;;;;;;22.71;86.83;102472.75;10399968;28;20042;-76
2023/10/08 13:13:56;;;;;;;5.53;1.02;;;;;;;22.56;90.54;102474.59;10375582;28;20482;-76
2023/10/08 13:18:58;;;;;;;3.50;0.80;;;;;;;22.17;89.60;102481.09;10396581;28;20045;-75
2023/10/08 13:24:02;;;;;;;5.80;0.82;;;;;;;21.17;90.15;102480.38;10399094;28;20120;-76
2023/10/08 13:29:03;;;;;;;6.88;1.20;;;;;;;20.18;93.46;102485.63;10398878;28;20084;-75
2023/10/08 13:34:08;;;;;;;7.07;1.02;;;;;;;19.38;97.50;102488.00;10399723;28;20095;-76
2023/10/08 13:39:09;;;;;;;6.93;0.80;;;;;;;19.26;100.00;102505.84;10392489;28;20057;-76
2023/10/08 13:44:12;;;;;;;7.82;1.20;;;;;;;19.22;100.00;102520.63;10409257;28;20059;-76
2023/10/08 13:49:14;;;;;;;6.85;0.88;;;;;;;19.04;100.00;102496.81;10398525;28;20061;-77
2023/10/08 13:54:14;;;;;;;6.35;1.05;;;;;;;19.65;98.31;102490.59;10397168;28;20050;-77
2023/10/08 13:59:16;;;;;;;6.03;0.82;;;;;;;20.91;98.59;102498.38;10399028;28;20045;-76
2023/10/08 14:04:17;;;;;;;5.00;0.90;;;;;;;20.82;92.01;102484.16;10396342;28;20505;-77
2023/10/08 14:09:36;;;;;;;5.45;0.90;;;;;;;19.81;99.41;102488.69;10382129;28;20048;-77
2023/10/08 14:14:40;;;;;;;5.97;0.90;;;;;;;18.82;100.00;102502.56;10394458;28;20037;-76
2023/10/08 14:19:59;;;;;;;3.95;0.90;;;;;;;18.03;100.00;102518.16;10396436;28;20042;-78
2023/10/08 14:25:00;;;;;;;5.00;0.88;;;;;;;17.34;100.00;102527.94;10398565;28;20041;-76
2023/10/08 14:30:04;;;;;;;6.40;1.13;;;;;;;16.97;100.00;102527.75;10397124;28;20046;-77
2023/10/08 14:45:46;;;;;;;6.32;0.60;;;;;;;16.33;100.00;102512.34;10382661;28;20042;-76
2023/10/08 14:50:49;;;;;;;4.47;1.75;;;;;;;16.41;100.00;102474.91;10384178;28;20034;-77
2023/10/08 14:55:50;;;;;;;5.85;1.00;;;;;;;16.81;100.00;102469.13;10400150;28;20525;-77
2023/10/08 15:00:54;;;;;;;6.85;1.60;;;;;;;17.35;100.00;102440.56;10392369;28;20060;-76
2023/10/08 15:05:55;;;;;;;9.85;1.38;;;;;;;17.35;100.00;102438.63;10385742;28;20042;-76
2023/10/08 15:10:55;;;;;;;4.63;0.70;;;;;;;16.99;100.00;102431.81;10393470;28;20120;-79
2023/10/08 15:15:58;;;;;;;6.00;1.15;;;;;;;16.73;100.00;102428.66;10392284;28;20029;-79
2023/10/08 15:20:58;;;;;;;6.97;1.15;;;;;;;16.65;100.00;102429.13;10390939;28;20053;-80
2023/10/08 15:25:59;;;;;;;4.82;1.60;;;;;;;16.46;100.00;102422.19;10395755;28;20053;-79
2023/10/08 15:30:59;;;;;;;6.82;1.00;;;;;;;16.12;100.00;102405.56;10377478;28;20030;-80
2023/10/08 15:36:01;;;;;;;5.97;1.08;;;;;;;15.92;100.00;102411.66;10392712;28;20630;-81
2023/10/08 15:41:01;;;;;;;8.10;1.10;;;;;;;15.72;100.00;102417.69;10391912;28;20041;-78
2023/10/08 15:46:05;;;;;;;8.40;1.10;;;;;;;15.53;100.00;102412.34;10395884;28;20116;-80
2023/10/08 15:51:05;;;;;;;5.40;1.23;;;;;;;15.39;100.00;102399.88;10391010;28;20438;-79
2023/10/08 15:56:06;;;;;;;10.70;2.55;;;;;;;15.21;100.00;102383.44;10395464;28;20041;-79
2023/10/08 16:01:06;;;;;;;5.80;1.02;;;;;;;15.00;100.00;102377.50;10391153;28;20049;-81
2023/10/08 16:06:07;;;;;;;6.82;1.10;;;;;;;14.95;100.00;102396.81;10399069;28;20042;-80
2023/10/08 16:11:07;;;;;;;2.90;1.60;;;;;;;14.78;100.00;102401.44;10386718;28;20049;-74
2023/10/08 16:16:09;;;;;;;5.07;1.75;;;;;;;14.76;100.00;102414.69;10396743;28;20038;-73
2023/10/08 16:21:11;;;;;;;4.88;1.00;;;;;;;14.66;100.00;102402.31;10393706;28;20049;-73
2023/10/08 16:26:13;;;;;;;9.02;1.30;;;;;;;14.62;100.00;102403.06;10410526;28;20038;-72
2023/10/08 16:31:13;;;;;;;2.60;0.70;;;;;;;14.49;100.00;102393.03;10407654;28;20068;-73
2023/10/08 16:36:15;;;;;;;7.30;1.35;;;;;;;14.39;100.00;102376.22;10403095;28;20045;-72
2023/10/08 16:41:15;;;;;;;7.07;1.77;;;;;;;14.28;100.00;102383.44;10388682;28;20498;-73
2023/10/08 16:46:16;;;;;;;4.88;1.02;;;;;;;14.16;100.00;102388.13;10403975;28;20037;-73
2023/10/08 16:51:17;;;;;;;6.25;1.02;;;;;;;14.13;100.00;102379.22;10405802;28;20029;-68
2023/10/08 16:56:17;;;;;;;3.47;0.88;;;;;;;14.07;100.00;102395.97;10406827;28;20055;-72
2023/10/08 17:01:17;;;;;;;4.70;1.10;;;;;;;14.04;100.00;102399.22;10389346;28;20051;-73
2023/10/08 17:06:18;;;;;;;8.13;2.17;;;;;;;13.98;100.00;102389.13;10394462;28;20038;-73
2023/10/08 17:11:20;;;;;;;6.65;1.40;;;;;;;13.95;100.00;102381.28;10396736;28;20042;-73
2023/10/08 17:16:21;;;;;;;6.93;1.73;;;;;;;13.99;100.00;102388.03;10393058;28;20059;-73
2023/10/08 17:21:22;;;;;;;9.18;1.63;;;;;;;13.93;100.00;102379.59;10398993;28;20067;-73
2023/10/08 17:26:22;;;;;;;9.25;1.20;;;;;;;13.88;100.00;102385.00;10400998;28;20048;-73
2023/10/08 17:31:23;;;;;;;5.60;1.52;;;;;;;13.86;100.00;102372.50;10402427;28;20057;-72
2023/10/08 17:36:25;;;;;;;4.55;1.25;;;;;;;13.85;100.00;102363.34;10400388;28;20049;-73
2023/10/08 17:41:29;;;;;;;8.57;1.58;;;;;;;13.77;100.00;102380.31;10401553;28;20056;-73
2023/10/08 17:46:30;;;;;;;7.45;1.20;;;;;;;13.72;100.00;102374.63;10399119;28;20049;-73
2023/10/08 17:51:34;;;;;;;5.15;1.73;;;;;;;13.68;100.00;102354.06;10402411;28;20041;-73
2023/10/08 17:56:35;;;;;;;2.70;1.13;;;;;;;13.64;100.00;102345.41;10401538;28;20116;-73
2023/10/08 18:01:38;;;;;;;5.72;0.95;;;;;;;13.59;100.00;102341.66;10401878;28;20394;-72
2023/10/08 18:06:40;;;;;;;7.25;1.60;;;;;;;13.48;100.00;102330.34;10399198;28;20049;-73
2023/10/08 18:11:43;;;;;;;3.47;0.98;;;;;;;13.41;100.00;102303.84;10399906;28;20034;-73
2023/10/08 18:16:44;;;;;;;6.35;1.52;;;;;;;13.34;100.00;102326.09;10397979;28;20129;-72
2023/10/08 18:21:45;;;;;;;5.80;1.67;;;;;;;13.29;100.00;102317.66;10398011;28;20453;-72
2023/10/08 18:26:47;;;;;;;12.38;2.30;;;;;;;13.21;100.00;102312.44;10395576;28;20345;-72
2023/10/08 18:31:48;;;;;;;4.97;1.05;;;;;;;13.23;100.00;102319.44;10397327;28;20050;-72
2023/10/08 18:36:49;;;;;;;5.25;1.40;;;;;;;13.18;100.00;102316.53;10374804;28;20129;-73
2023/10/08 18:41:51;;;;;;;4.38;1.02;;;;;;;13.10;100.00;102303.03;10389996;28;20547;-73
2023/10/08 18:46:52;;;;;;;3.85;0.93;;;;;;;13.03;100.00;102313.38;10374843;28;20037;-72
2023/10/08 18:51:52;;;;;;;1.50;0.70;;;;;;;12.97;100.00;102281.97;10390721;28;20037;-73
2023/10/08 18:56:54;;;;;;;5.25;1.45;;;;;;;12.89;100.00;102279.53;10398347;28;20042;-73
2023/10/08 19:01:54;;;;;;;5.65;1.10;;;;;;;12.84;100.00;102268.38;10398921;28;20084;-72
2023/10/08 19:06:54;;;;;;;5.20;1.25;;;;;;;12.85;100.00;102234.94;10396318;28;20037;-73
2023/10/08 19:11:55;;;;;;;5.88;1.60;;;;;;;12.88;100.00;102258.53;10394893;28;20064;-73
2023/10/08 19:16:55;;;;;;;4.25;1.38;;;;;;;12.84;100.00;102222.22;10396841;28;20034;-71
2023/10/08 19:21:56;;;;;;;10.10;1.33;;;;;;;12.92;100.00;102210.00;10398342;28;20052;-73
2023/10/08 19:26:56;;;;;;;7.18;1.10;;;;;;;12.92;100.00;102179.59;10403184;28;20064;-70
2023/10/08 19:31:58;;;;;;;8.23;1.77;;;;;;;12.93;100.00;102181.25;10398204;28;21037;-73
2023/10/08 19:37:01;;;;;;;9.98;1.85;;;;;;;12.97;100.00;102185.22;10398475;28;20045;-72
2023/10/08 19:42:02;;;;;;;7.13;1.90;;;;;;;13.03;100.00;102164.91;10394764;28;20037;-73
2023/10/08 19:47:03;;;;;;;4.95;1.42;;;;;;;13.05;100.00;102154.47;10378103;28;20034;-73
2023/10/08 19:52:04;;;;;;;5.03;1.40;;;;;;;12.99;100.00;102147.13;10397313;28;20064;-72
2023/10/08 19:57:04;;;;;;;7.00;1.70;;;;;;;12.93;100.00;102154.44;10397279;28;20044;-72
2023/10/08 20:02:05;;;;;;;6.97;1.83;;;;;;;12.86;100.00;102152.91;10404865;28;20042;-72
2023/10/08 20:07:07;;;;;;;5.30;1.80;;;;;;;12.79;100.00;102164.03;10406952;28;20056;-74
2023/10/08 20:12:09;;;;;;;5.13;2.13;;;;;;;12.78;100.00;102164.28;10401785;28;20042;-73
2023/10/08 20:17:09;;;;;;;8.07;2.50;;;;;;;12.75;100.00;102164.75;10403910;28;20543;-74
2023/10/08 20:22:11;;;;;;;12.93;3.30;;;;;;;12.75;100.00;102145.41;10401495;28;20041;-74
2023/10/08 20:27:14;;;;;;;11.70;4.03;;;;;;;12.72;100.00;102164.16;10408519;28;20057;-74
2023/10/08 20:32:15;;;;;;;8.82;3.13;;;;;;;12.69;100.00;102136.16;10403926;28;20038;-74
2023/10/08 20:37:16;;;;;;;8.80;3.75;;;;;;;12.64;100.00;102114.75;10405094;28;20044;-74
2023/10/08 20:42:16;;;;;;;6.30;2.60;;;;;;;12.63;100.00;102115.00;10388606;28;20066;-75
2023/10/08 20:47:18;;;;;;;6.47;2.28;;;;;;;12.60;100.00;102109.97;10401669;28;20058;-75
2023/10/08 20:52:18;;;;;;;7.85;3.30;;;;;;;12.60;100.00;102108.03;10398070;28;20045;-74
2023/10/08 20:57:19;;;;;;;6.28;3.58;;;;;;;12.63;100.00;102110.34;10401602;28;20058;-74
2023/10/08 21:02:21;;;;;;;9.85;3.83;;;;;;;12.68;100.00;102118.72;10395645;28;20042;-75
2023/10/08 21:07:21;;;;;;;7.13;3.33;;;;;;;12.71;100.00;102107.22;10398124;28;20040;-74
2023/10/08 21:12:21;;;;;;;7.55;3.20;;;;;;;12.78;100.00;102095.22;10397605;28;20033;-73
2023/10/08 21:17:24;;;;;;;6.70;2.97;;;;;;;12.81;100.00;102092.78;10400521;28;20048;-74
2023/10/08 21:22:27;;;;;;;8.85;3.92;;;;;;;12.85;100.00;102084.88;10396614;28;20052;-74
2023/10/08 21:27:28;;;;;;;5.68;3.08;;;;;;;12.85;100.00;102084.88;10399065;28;20050;-74
2023/10/08 21:32:29;;;;;;;5.03;2.70;;;;;;;12.86;100.00;102075.50;10399360;28;20064;-76
2023/10/08 21:37:29;;;;;;;5.10;2.60;;;;;;;12.87;100.00;102078.00;10396501;28;20053;-75
2023/10/08 21:42:29;;;;;;;8.40;2.60;;;;;;;12.78;100.00;102067.56;10395784;28;20037;-68
2023/10/08 21:47:30;;;;;;;7.68;2.85;;;;;;;12.87;100.00;102099.28;10400083;28;20056;-75
2023/10/08 21:52:31;;;;;;;5.70;1.90;;;;;;;12.85;100.00;102080.16;10399480;28;20068;-74
2023/10/08 21:57:34;;;;;;;8.98;2.10;;;;;;;12.82;100.00;102058.56;10401965;28;20109;-75
2023/10/08 22:02:44;;;;;;;5.60;2.13;;;;;;;12.85;100.00;102060.81;10400330;28;20144;-74
2023/10/08 22:07:45;;;;;;;6.38;2.17;;;;;;;12.79;100.00;102063.72;10400039;28;20044;-74
2023/10/08 22:12:47;;;;;;;7.05;2.20;;;;;;;12.78;100.00;102023.38;10400034;28;20460;-74
2023/10/08 22:17:48;;;;;;;6.30;2.83;;;;;;;12.86;100.00;102037.66;10398120;28;20049;-75
2023/10/08 22:22:48;;;;;;;5.03;1.85;;;;;;;12.87;100.00;102044.84;10398880;28;20042;-74
2023/10/08 22:27:49;;;;;;;4.13;2.40;;;;;;;12.88;100.00;102024.44;10400206;28;20045;-74
2023/10/08 22:32:51;;;;;;;5.72;2.47;;;;;;;12.90;100.00;102018.66;10398597;28;20051;-75
2023/10/08 22:38:01;;;;;;;3.85;2.33;;;;;;;12.89;100.00;102020.56;10400447;28;20061;-74
2023/10/08 22:43:03;;;;;;;6.85;2.30;;;;;;;12.88;100.00;101993.19;10393343;28;20068;-75
2023/10/08 22:48:05;;;;;;;7.50;2.13;;;;;;;12.91;100.00;101976.09;10385897;28;20119;-75
2023/10/08 22:53:08;;;;;;;7.78;2.50;;;;;;;12.88;100.00;101954.50;10399878;28;20045;-74
2023/10/08 22:58:09;;;;;;;8.45;2.33;;;;;;;12.93;100.00;101938.84;10381572;28;20047;-75
2023/10/08 23:03:11;;;;;;;8.05;2.40;;;;;;;12.94;100.00;101948.00;10389978;28;20042;-74
2023/10/08 23:08:12;;;;;;;6.03;2.38;;;;;;;12.93;100.00;101941.59;10386664;28;20070;-75
2023/10/08 23:13:13;;;;;;;3.13;2.15;;;;;;;12.76;100.00;101887.34;10395754;28;20049;-73
2023/10/08 23:18:13;;;;;;;5.78;2.85;;;;;;;12.96;100.00;101904.38;10393191;28;20057;-75
2023/10/08 23:23:18;;;;;;;3.65;2.00;;;;;;;12.93;100.00;101915.91;10396766;28;20072;-74
2023/10/08 23:28:19;;;;;;;6.90;1.83;;;;;;;12.95;100.00;101899.06;10376399;28;20063;-74
2023/10/08 23:33:21;;;;;;;4.70;1.58;;;;;;;12.77;100.00;101855.88;10392313;28;20108;-74
2023/10/08 23:38:31;;;;;;;5.47;1.58;;;;;;;12.89;100.00;101895.34;10393448;28;20034;-73
2023/10/08 23:43:40;;;;;;;5.13;1.55;;;;;;;12.88;100.00;101889.00;10395395;28;20046;-74
2023/10/08 23:48:53;;;;;;;5.70;1.80;;;;;;;12.89;100.00;101895.34;10395364;28;20541;-73
2023/10/08 23:53:55;;;;;;;3.63;1.80;;;;;;;12.89;100.00;101920.22;10391657;28;20506;-74
2023/10/08 23:58:59;;;;;;;6.18;2.22;;;;;;;12.90;100.00;101927.47;10382627;28;20042;-74
